createdAt,value
2023-08-12T00:00:12.334Z,76.23
2023-08-12T00:02:45.735Z,76.06
2023-08-12T00:05:15.320Z,76.75
2023-08-12T00:07:44.966Z,76.43
2023-08-12T00:10:14.620Z,76.35
2023-08-12T00:12:43.575Z,76.48
2023-08-12T00:15:12.574Z,76.12
2023-08-12T00:17:42.813Z,76.34
2023-08-12T00:20:14.197Z,76.09
2023-08-12T00:22:42.937Z,76.55
2023-08-12T00:25:11.413Z,76.38
2023-08-12T00:27:40.076Z,76.23
2023-08-12T00:30:10.040Z,76.22
2023-08-12T00:32:38.438Z,75.97
2023-08-12T00:35:07.688Z,75.86
2023-08-12T00:37:37.682Z,76.19
2023-08-12T00:40:07.986Z,76.03
2023-08-12T00:42:36.298Z,76.49
2023-08-12T00:45:05.434Z,76.30
2023-08-12T00:47:34.240Z,76.11
2023-08-12T00:50:04.134Z,76.27
2023-08-12T00:52:32.448Z,76.07
2023-08-12T00:55:02.246Z,76.45
2023-08-12T00:57:30.700Z,76.57
2023-08-12T00:59:59.145Z,76.53
2023-08-12T01:02:27.981Z,76.37
2023-08-12T01:04:56.344Z,76.76
2023-08-12T01:07:24.728Z,76.71
2023-08-12T01:09:53.414Z,76.55
2023-08-12T01:12:29.343Z,76.89
2023-08-12T01:15:13.441Z,76.87
2023-08-12T01:17:45.889Z,77.04
2023-08-12T01:20:15.327Z,77.19
2023-08-12T01:22:47.924Z,77.17
2023-08-12T01:25:18.283Z,77.79
2023-08-12T01:27:46.730Z,77.61
2023-08-12T01:30:17.409Z,77.30
2023-08-12T01:32:56.165Z,76.97
2023-08-12T01:35:31.222Z,76.96
2023-08-12T01:38:04.244Z,77.05
2023-08-12T01:43:04.261Z,77.01
2023-08-12T01:45:34.047Z,76.83
2023-08-12T01:48:04.305Z,76.59
2023-08-12T01:50:32.598Z,77.05
2023-08-12T01:53:01.069Z,77.02
2023-08-12T01:55:33.287Z,76.97
2023-08-12T01:58:01.515Z,77.22
2023-08-12T02:00:29.802Z,77.29
2023-08-12T02:02:58.234Z,77.73
2023-08-12T02:05:27.570Z,77.45
2023-08-12T02:07:55.878Z,77.32
2023-08-12T02:10:24.141Z,77.07
2023-08-12T02:12:53.722Z,77.12
2023-08-12T02:15:22.063Z,77.06
2023-08-12T02:17:50.460Z,77.11
2023-08-12T02:20:20.024Z,76.94
2023-08-12T02:22:48.297Z,76.94
2023-08-12T02:25:17.925Z,76.60
2023-08-12T02:27:46.435Z,76.79
2023-08-12T02:30:16.335Z,77.38
2023-08-12T02:32:45.408Z,76.99
2023-08-12T02:35:13.856Z,76.79
2023-08-12T02:37:42.129Z,76.79
2023-08-12T02:40:12.011Z,77.59
2023-08-12T02:42:40.326Z,77.55
2023-08-12T02:45:09.211Z,77.35
2023-08-12T02:47:38.943Z,77.66
2023-08-12T02:50:09.641Z,77.28
2023-08-12T02:52:37.918Z,77.39
2023-08-12T02:55:07.140Z,77.34
2023-08-12T02:57:35.486Z,77.88
2023-08-12T03:00:05.404Z,78.04
2023-08-12T03:02:34.151Z,78.94
2023-08-12T03:05:03.918Z,79.65
2023-08-12T03:07:32.320Z,80.31
2023-08-12T03:10:01.282Z,81.14
2023-08-12T03:12:29.548Z,81.11
2023-08-12T03:14:57.965Z,81.35
2023-08-12T03:17:26.604Z,80.82
2023-08-12T03:19:55.619Z,80.55
2023-08-12T03:22:25.443Z,81.17
2023-08-12T03:24:54.393Z,81.24
2023-08-12T03:27:22.612Z,81.53
2023-08-12T03:29:52.209Z,81.29
2023-08-12T03:32:20.879Z,81.38
2023-08-12T03:34:49.434Z,81.39
2023-08-12T03:37:18.094Z,81.18
2023-08-12T03:39:48.366Z,81.09
2023-08-12T03:42:18.021Z,81.27
2023-08-12T03:44:46.705Z,81.27
2023-08-12T03:47:15.267Z,81.93
2023-08-12T03:49:43.510Z,82.30
2023-08-12T03:52:12.082Z,81.92
2023-08-12T03:54:40.342Z,82.52
2023-08-12T03:57:10.451Z,82.49
2023-08-12T03:59:39.968Z,82.79
2023-08-12T04:02:08.500Z,83.96
2023-08-12T04:04:36.713Z,83.63
2023-08-12T04:07:05.050Z,83.67
2023-08-12T04:09:33.396Z,82.91
2023-08-12T04:12:01.675Z,82.33
2023-08-12T04:14:31.769Z,82.48
2023-08-12T04:17:00.088Z,83.07
2023-08-12T04:19:28.808Z,82.81
2023-08-12T04:21:57.244Z,82.09
2023-08-12T04:24:25.782Z,81.77
2023-08-12T04:26:54.401Z,81.79
2023-08-12T04:29:22.724Z,81.75
2023-08-12T04:31:53.758Z,81.82
2023-08-12T04:34:22.416Z,81.75
2023-08-12T04:36:52.046Z,81.97
2023-08-12T04:39:20.343Z,81.87
2023-08-12T04:41:49.071Z,82.22
2023-08-12T04:44:17.626Z,82.32
2023-08-12T04:46:46.032Z,82.05
2023-08-12T04:49:15.725Z,81.94
2023-08-12T04:51:44.995Z,82.69
2023-08-12T04:54:15.790Z,82.34
2023-08-12T04:56:44.741Z,82.84
2023-08-12T04:59:13.168Z,82.56
2023-08-12T05:01:54.545Z,82.79
2023-08-12T05:04:30.949Z,82.52
2023-08-12T05:06:59.222Z,82.99
2023-08-12T05:09:27.804Z,82.99
2023-08-12T05:11:56.176Z,83.02
2023-08-12T05:14:24.755Z,83.08
2023-08-12T05:16:53.075Z,83.34
2023-08-12T05:19:21.403Z,83.57
2023-08-12T05:21:51.104Z,84.05
2023-08-12T05:24:19.569Z,83.33
2023-08-12T05:26:48.503Z,82.88
2023-08-12T05:29:16.804Z,82.99
2023-08-12T05:31:45.253Z,82.86
2023-08-12T05:34:13.610Z,83.31
2023-08-12T05:36:42.164Z,83.40
2023-08-12T05:39:12.220Z,83.02
2023-08-12T05:41:40.662Z,82.89
2023-08-12T05:44:09.603Z,83.26
2023-08-12T05:46:37.801Z,83.12
2023-08-12T05:49:07.505Z,82.81
2023-08-12T05:51:36.199Z,82.69
2023-08-12T05:54:04.681Z,82.80
2023-08-12T05:56:36.606Z,82.46
2023-08-12T05:59:06.269Z,83.27
2023-08-12T06:01:34.814Z,83.16
2023-08-12T06:04:03.396Z,83.36
2023-08-12T06:06:31.915Z,83.11
2023-08-12T06:09:00.210Z,83.48
2023-08-12T06:11:28.481Z,83.94
2023-08-12T06:13:58.082Z,83.51
2023-08-12T06:16:26.426Z,84.08
2023-08-12T06:18:54.878Z,85.02
2023-08-12T06:21:23.159Z,85.48
2023-08-12T06:23:51.442Z,85.89
2023-08-12T06:26:19.655Z,85.19
2023-08-12T06:28:47.920Z,85.46
2023-08-12T06:31:17.539Z,85.59
2023-08-12T06:33:45.810Z,85.02
2023-08-12T06:36:14.180Z,84.90
2023-08-12T06:38:42.488Z,85.33
2023-08-12T06:41:10.762Z,85.02
2023-08-12T06:43:39.251Z,84.34
2023-08-12T06:46:07.760Z,84.29
2023-08-12T06:48:37.513Z,83.82
2023-08-12T06:51:11.385Z,85.20
2023-08-12T06:53:40.769Z,85.53
2023-08-12T06:56:09.143Z,85.47
2023-08-12T06:58:37.391Z,85.81
2023-08-12T07:01:05.776Z,85.37
2023-08-12T07:03:34.720Z,85.15
2023-08-12T07:06:04.484Z,85.05
2023-08-12T07:08:33.312Z,85.01
2023-08-12T07:11:01.654Z,84.56
2023-08-12T07:13:30.025Z,85.10
2023-08-12T07:15:58.408Z,85.37
2023-08-12T07:18:26.753Z,85.27
2023-08-12T07:20:54.983Z,85.41
2023-08-12T07:23:24.701Z,85.36
2023-08-12T07:25:53.420Z,85.53
2023-08-12T07:28:21.710Z,86.50
2023-08-12T07:30:51.260Z,86.96
2023-08-12T07:33:19.563Z,87.79
2023-08-12T07:35:47.862Z,87.10
2023-08-12T07:38:16.087Z,86.52
2023-08-12T07:40:45.656Z,85.25
2023-08-12T07:43:13.973Z,84.97
2023-08-12T07:45:42.247Z,84.60
2023-08-12T07:48:10.642Z,83.33
2023-08-12T07:50:39.034Z,81.98
2023-08-12T07:53:07.372Z,82.56
2023-08-12T07:55:37.145Z,82.77
2023-08-12T07:58:06.773Z,83.01
2023-08-12T08:00:35.821Z,81.74
2023-08-12T08:03:04.237Z,83.89
2023-08-12T08:05:32.894Z,85.17
2023-08-12T08:08:01.545Z,86.34
2023-08-12T08:10:29.760Z,86.85
2023-08-12T08:12:58.167Z,88.01
2023-08-12T08:15:27.862Z,88.64
2023-08-12T08:17:57.081Z,88.12
2023-08-12T08:20:25.556Z,87.69
2023-08-12T08:22:56.302Z,88.47
2023-08-12T08:25:26.982Z,88.39
2023-08-12T08:27:55.841Z,89.08
2023-08-12T08:30:25.436Z,88.19
2023-08-12T08:32:55.100Z,82.71
2023-08-12T08:35:23.753Z,80.67
2023-08-12T08:37:52.077Z,81.08
2023-08-12T08:40:22.004Z,81.03
2023-08-12T08:42:55.148Z,78.83
2023-08-12T08:45:24.856Z,78.78
2023-08-12T08:47:59.042Z,78.22
2023-08-12T08:50:28.040Z,77.55
2023-08-12T08:52:58.398Z,75.86
2023-08-12T08:55:27.051Z,74.94
2023-08-12T08:58:02.229Z,75.91
2023-08-12T09:00:31.030Z,76.70
2023-08-12T09:03:01.547Z,77.16
2023-08-12T09:05:31.458Z,76.70
2023-08-12T09:08:01.849Z,76.03
2023-08-12T09:10:32.134Z,75.28
2023-08-12T09:13:00.472Z,76.72
2023-08-12T09:15:28.874Z,73.52
2023-08-12T09:17:58.188Z,74.57
2023-08-12T09:20:28.620Z,71.31
2023-08-12T09:23:01.891Z,68.21
2023-08-12T09:25:31.251Z,67.14
2023-08-12T09:28:01.911Z,66.65
2023-08-12T09:30:32.533Z,66.71
2023-08-12T09:33:05.628Z,66.34
2023-08-12T09:35:37.778Z,64.79
2023-08-12T09:38:08.928Z,65.35
2023-08-12T09:40:38.857Z,64.88
2023-08-12T09:43:07.969Z,63.60
2023-08-12T09:45:37.967Z,61.84
2023-08-12T09:48:09.095Z,59.97
2023-08-12T09:50:39.203Z,59.75
2023-08-12T09:53:07.988Z,61.95
2023-08-12T09:55:38.586Z,60.38
2023-08-12T09:58:12.176Z,62.53
2023-08-12T10:00:42.586Z,63.43
2023-08-12T10:03:15.412Z,63.50
2023-08-12T10:05:46.098Z,62.44
2023-08-12T10:08:16.186Z,63.24
2023-08-12T10:10:56.062Z,62.00
2023-08-12T10:13:31.974Z,61.85
2023-08-12T10:16:00.710Z,63.10
2023-08-12T10:18:30.989Z,65.28
2023-08-12T10:21:02.660Z,64.52
2023-08-12T10:23:31.920Z,65.46
2023-08-12T10:26:02.060Z,65.31
2023-08-12T10:28:32.782Z,64.72
2023-08-12T10:31:01.207Z,64.33
2023-08-12T10:33:29.900Z,59.94
2023-08-12T10:36:00.001Z,60.22
2023-08-12T10:38:28.723Z,57.55
2023-08-12T10:41:18.887Z,58.02
2023-08-12T10:44:07.383Z,58.60
2023-08-12T10:46:37.563Z,58.36
2023-08-12T10:49:08.819Z,60.00
2023-08-12T10:51:48.309Z,61.03
2023-08-12T10:54:18.547Z,62.91
2023-08-12T10:57:16.014Z,64.10
2023-08-12T10:59:59.581Z,63.45
2023-08-12T11:02:33.938Z,63.37
2023-08-12T11:05:05.241Z,58.68
2023-08-12T11:07:44.233Z,57.46
2023-08-12T11:10:15.776Z,56.70
2023-08-12T11:12:50.972Z,57.04
2023-08-12T11:15:20.839Z,57.23
2023-08-12T11:17:50.771Z,55.88
2023-08-12T11:20:19.956Z,56.74
2023-08-12T11:22:49.814Z,57.40
2023-08-12T11:25:20.534Z,57.17
2023-08-12T11:27:50.296Z,57.16
2023-08-12T11:30:21.417Z,54.63
2023-08-12T11:32:52.289Z,53.36
2023-08-12T11:35:22.150Z,53.83
2023-08-12T11:37:54.316Z,52.19
2023-08-12T11:40:23.228Z,52.81
2023-08-12T11:42:53.470Z,53.97
2023-08-12T11:45:24.847Z,51.98
2023-08-12T11:47:55.371Z,50.85
2023-08-12T11:50:26.486Z,51.28
2023-08-12T11:52:58.336Z,52.05
2023-08-12T11:55:27.666Z,52.55
2023-08-12T11:57:56.046Z,51.24
2023-08-12T12:00:27.411Z,51.98
2023-08-12T12:02:58.685Z,52.29
2023-08-12T12:05:31.231Z,51.96
2023-08-12T12:08:02.277Z,52.14
2023-08-12T12:10:34.880Z,53.20
2023-08-12T12:13:06.107Z,51.31
2023-08-12T12:15:40.603Z,52.32
2023-08-12T12:18:13.686Z,52.44
2023-08-12T12:20:56.804Z,51.76
2023-08-12T12:23:30.113Z,53.05
2023-08-12T12:26:03.206Z,51.21
2023-08-12T12:28:33.042Z,52.22
2023-08-12T12:31:01.419Z,52.43
2023-08-12T12:33:29.824Z,53.33
2023-08-12T12:36:01.030Z,54.18
2023-08-12T12:38:32.285Z,51.54
2023-08-12T12:41:00.552Z,50.76
2023-08-12T12:43:28.822Z,51.05
2023-08-12T12:45:57.292Z,49.73
2023-08-12T12:48:25.627Z,49.89
2023-08-12T12:50:53.881Z,50.30
2023-08-12T12:53:22.165Z,49.15
2023-08-12T12:55:52.074Z,49.42
2023-08-12T12:58:20.502Z,48.59
2023-08-12T13:00:48.767Z,49.38
2023-08-12T13:03:17.417Z,50.91
2023-08-12T13:05:45.775Z,49.61
2023-08-12T13:08:14.132Z,50.81
2023-08-12T13:10:42.498Z,49.14
2023-08-12T13:13:12.413Z,47.65
2023-08-12T13:15:40.945Z,46.14
2023-08-12T13:18:09.584Z,47.36
2023-08-12T13:20:38.502Z,45.79
2023-08-12T13:23:07.289Z,48.02
2023-08-12T13:25:36.492Z,47.62
2023-08-12T13:28:06.282Z,47.18
2023-08-12T13:30:36.665Z,48.05
2023-08-12T13:33:06.047Z,50.04
2023-08-12T13:35:34.651Z,47.39
2023-08-12T13:38:02.956Z,48.34
2023-08-12T13:40:32.280Z,46.75
2023-08-12T13:43:00.996Z,47.83
2023-08-12T13:45:29.635Z,47.61
2023-08-12T13:47:59.324Z,48.07
2023-08-12T13:50:27.846Z,46.82
2023-08-12T13:52:56.377Z,46.11
2023-08-12T13:55:24.962Z,47.36
2023-08-12T13:57:53.655Z,47.18
2023-08-12T14:00:22.052Z,48.10
2023-08-12T14:02:50.561Z,49.33
2023-08-12T14:05:21.048Z,48.98
2023-08-12T14:07:49.470Z,50.38
2023-08-12T14:10:17.975Z,48.07
2023-08-12T14:12:46.206Z,46.99
2023-08-12T14:15:14.593Z,47.80
2023-08-12T14:17:44.378Z,47.67
2023-08-12T14:20:16.300Z,50.02
2023-08-12T14:22:46.295Z,48.88
2023-08-12T14:25:14.907Z,48.96
2023-08-12T14:27:43.786Z,49.76
2023-08-12T14:30:13.892Z,50.71
2023-08-12T14:32:42.224Z,50.59
2023-08-12T14:35:11.174Z,50.16
2023-08-12T14:37:39.395Z,51.13
2023-08-12T14:40:10.869Z,51.05
2023-08-12T14:42:39.214Z,50.49
2023-08-12T14:45:09.438Z,51.76
2023-08-12T14:47:37.618Z,52.32
2023-08-12T14:50:07.146Z,52.99
2023-08-12T14:52:35.625Z,52.78
2023-08-12T14:55:04.327Z,54.99
2023-08-12T14:57:34.159Z,56.04
2023-08-12T15:00:02.550Z,56.53
2023-08-12T15:02:33.092Z,56.77
2023-08-12T15:05:03.033Z,57.16
2023-08-12T15:07:31.282Z,57.02
2023-08-12T15:10:00.444Z,56.44
2023-08-12T15:12:29.252Z,53.73
2023-08-12T15:14:59.532Z,53.96
2023-08-12T15:17:27.871Z,53.17
2023-08-12T15:19:56.497Z,51.86
2023-08-12T15:22:25.111Z,52.70
2023-08-12T15:24:54.233Z,53.32
2023-08-12T15:27:22.714Z,53.69
2023-08-12T15:29:51.006Z,53.11
2023-08-12T15:32:20.605Z,53.85
2023-08-12T15:34:48.904Z,53.02
2023-08-12T15:37:17.153Z,52.59
2023-08-12T15:39:45.718Z,52.50
2023-08-12T15:42:13.949Z,52.85
2023-08-12T15:44:43.003Z,52.12
2023-08-12T15:47:11.722Z,50.76
2023-08-12T15:49:41.697Z,49.94
2023-08-12T15:52:10.080Z,49.90
2023-08-12T15:54:38.353Z,49.54
2023-08-12T15:57:08.948Z,49.42
2023-08-12T15:59:37.272Z,49.04
2023-08-12T16:02:05.806Z,49.09
2023-08-12T16:04:34.216Z,49.51
2023-08-12T16:07:03.892Z,48.83
2023-08-12T16:09:32.221Z,48.50
2023-08-12T16:12:00.494Z,48.60
2023-08-12T16:14:28.665Z,48.13
2023-08-12T16:16:56.849Z,47.64
2023-08-12T16:19:25.325Z,47.53
2023-08-12T16:21:53.548Z,46.50
2023-08-12T16:24:23.502Z,45.02
2023-08-12T16:26:51.743Z,44.93
2023-08-12T16:29:20.047Z,44.15
2023-08-12T16:31:48.441Z,44.48
2023-08-12T16:34:16.693Z,45.61
2023-08-12T16:36:45.077Z,46.20
2023-08-12T16:39:13.281Z,46.50
2023-08-12T16:41:43.347Z,46.98
2023-08-12T16:44:11.660Z,47.05
2023-08-12T16:46:40.909Z,46.41
2023-08-12T16:49:09.200Z,47.12
2023-08-12T16:51:37.404Z,47.71
2023-08-12T16:54:06.043Z,46.91
2023-08-12T16:56:34.231Z,48.61
2023-08-12T16:59:04.353Z,47.30
2023-08-12T17:01:32.931Z,47.11
2023-08-12T17:04:02.649Z,47.34
2023-08-12T17:06:30.946Z,46.02
2023-08-12T17:08:59.223Z,45.89
2023-08-12T17:11:27.597Z,47.07
2023-08-12T17:13:56.059Z,45.51
2023-08-12T17:16:25.867Z,45.38
2023-08-12T17:18:54.238Z,45.37
2023-08-12T17:21:22.578Z,45.51
2023-08-12T17:23:51.060Z,45.29
2023-08-12T17:26:19.443Z,46.58
2023-08-12T17:28:47.663Z,47.23
2023-08-12T17:31:17.450Z,47.06
2023-08-12T17:33:47.792Z,47.69
2023-08-12T17:36:16.022Z,47.70
2023-08-12T17:38:43.205Z,47.90
2023-08-12T17:41:11.417Z,47.57
2023-08-12T17:43:42.480Z,48.27
2023-08-12T17:46:13.401Z,48.10
2023-08-12T17:48:42.015Z,48.00
2023-08-12T17:51:13.927Z,48.77
2023-08-12T17:53:42.438Z,49.10
2023-08-12T17:56:10.884Z,49.21
2023-08-12T17:58:39.338Z,50.52
2023-08-12T18:01:08.037Z,50.56
2023-08-12T18:03:36.464Z,51.84
2023-08-12T18:06:06.015Z,51.11
2023-08-12T18:08:35.849Z,51.58
2023-08-12T18:11:04.959Z,51.27
2023-08-12T18:13:33.283Z,51.40
2023-08-12T18:16:01.760Z,51.91
2023-08-12T18:18:31.264Z,51.19
2023-08-12T18:20:59.699Z,53.03
2023-08-12T18:23:30.004Z,55.02
2023-08-12T18:25:59.698Z,55.17
2023-08-12T18:28:28.119Z,56.57
2023-08-12T18:30:56.482Z,57.77
2023-08-12T18:33:24.688Z,57.46
2023-08-12T18:35:52.973Z,58.13
2023-08-12T18:38:21.280Z,58.84
2023-08-12T18:40:49.524Z,59.31
2023-08-12T18:43:19.236Z,59.01
2023-08-12T18:45:47.479Z,58.38
2023-08-12T18:48:15.936Z,59.34
2023-08-12T18:50:44.393Z,58.65
2023-08-12T18:53:13.186Z,59.71
2023-08-12T18:55:41.452Z,59.94
2023-08-12T18:58:09.879Z,60.32
2023-08-12T19:00:39.471Z,61.33
2023-08-12T19:03:08.436Z,60.74
2023-08-12T19:05:37.658Z,61.36
2023-08-12T19:08:06.733Z,61.54
2023-08-12T19:10:35.159Z,62.27
2023-08-12T19:13:03.453Z,62.25
2023-08-12T19:15:31.811Z,62.29
2023-08-12T19:18:01.471Z,62.45
2023-08-12T19:20:29.786Z,62.65
2023-08-12T19:22:58.051Z,63.16
2023-08-12T19:25:26.301Z,63.22
2023-08-12T19:27:54.621Z,62.96
2023-08-12T19:30:23.017Z,63.24
2023-08-12T19:32:53.552Z,62.68
2023-08-12T19:35:23.914Z,63.83
2023-08-12T19:37:52.973Z,63.75
2023-08-12T19:40:21.895Z,63.17
2023-08-12T19:42:50.144Z,63.50
2023-08-12T19:45:18.587Z,64.23
2023-08-12T19:47:47.019Z,64.66
2023-08-12T19:50:15.387Z,64.64
2023-08-12T19:52:44.976Z,65.14
2023-08-12T19:55:13.224Z,64.52
2023-08-12T19:57:41.884Z,65.40
2023-08-12T20:00:11.841Z,65.24
2023-08-12T20:02:42.524Z,65.55
2023-08-12T20:05:16.315Z,65.80
2023-08-12T20:07:47.994Z,65.95
2023-08-12T20:10:18.028Z,66.55
2023-08-12T20:12:47.455Z,66.96
2023-08-12T20:15:16.236Z,66.44
2023-08-12T20:17:45.650Z,66.21
2023-08-12T20:20:18.282Z,66.25
2023-08-12T20:25:21.828Z,66.89
2023-08-12T20:27:50.036Z,67.41
2023-08-12T20:30:18.306Z,67.07
2023-08-12T20:32:46.600Z,67.99
2023-08-12T20:35:14.978Z,68.49
2023-08-12T20:37:43.300Z,67.75
2023-08-12T20:40:14.743Z,68.14
2023-08-12T20:42:43.001Z,68.26
2023-08-12T20:45:13.305Z,68.69
2023-08-12T20:47:42.429Z,68.94
2023-08-12T20:50:12.628Z,68.58
2023-08-12T20:52:40.904Z,68.69
2023-08-12T20:55:10.326Z,69.31
2023-08-12T20:57:39.926Z,69.31
2023-08-12T21:00:12.997Z,69.27
2023-08-12T21:02:43.851Z,69.69
2023-08-12T21:05:12.153Z,69.60
2023-08-12T21:07:40.590Z,69.67
2023-08-12T21:10:11.288Z,69.70
2023-08-12T21:12:41.381Z,69.17
2023-08-12T21:15:10.605Z,69.36
2023-08-12T21:17:38.990Z,69.32
2023-08-12T21:20:09.923Z,69.22
2023-08-12T21:22:38.080Z,69.59
2023-08-12T21:25:08.076Z,69.88
2023-08-12T21:27:36.296Z,70.03
2023-08-12T21:30:07.380Z,70.50
2023-08-12T21:32:35.721Z,70.81
2023-08-12T21:35:04.048Z,70.77
2023-08-12T21:37:32.263Z,70.31
2023-08-12T21:40:00.717Z,70.43
2023-08-12T21:42:28.995Z,70.40
2023-08-12T21:44:57.329Z,69.91
2023-08-12T21:47:27.252Z,70.36
2023-08-12T21:49:55.597Z,70.86
2023-08-12T21:52:23.815Z,70.41
2023-08-12T21:54:52.037Z,70.95
2023-08-12T21:57:20.659Z,70.25
2023-08-12T21:59:48.964Z,70.40
2023-08-12T22:02:26.080Z,70.40
2023-08-12T22:04:55.077Z,70.69
2023-08-12T22:07:24.016Z,70.86
2023-08-12T22:09:52.474Z,70.97
2023-08-12T22:12:20.898Z,70.47
2023-08-12T22:14:49.253Z,70.75
2023-08-12T22:17:17.597Z,69.79
2023-08-12T22:19:48.880Z,69.67
2023-08-12T22:22:19.633Z,69.32
2023-08-12T22:24:48.693Z,68.58
2023-08-12T22:27:17.047Z,68.72
2023-08-12T22:29:45.514Z,68.02
2023-08-12T22:32:14.181Z,68.40
2023-08-12T22:34:42.610Z,68.00
2023-08-12T22:37:12.335Z,68.15
2023-08-12T22:39:40.575Z,67.64
2023-08-12T22:42:09.198Z,68.05
2023-08-12T22:44:37.511Z,68.00
2023-08-12T22:47:06.850Z,67.49
2023-08-12T22:49:35.104Z,67.83
2023-08-12T22:52:03.308Z,67.61
2023-08-12T22:54:35.002Z,67.60
2023-08-12T22:57:03.195Z,67.22
2023-08-12T22:59:31.356Z,66.89
2023-08-12T23:01:59.683Z,67.30
2023-08-12T23:04:27.938Z,67.16
2023-08-12T23:06:56.125Z,67.14
2023-08-12T23:09:24.779Z,67.09
2023-08-12T23:11:54.404Z,67.42
2023-08-12T23:14:22.705Z,67.88
2023-08-12T23:16:51.291Z,67.97
2023-08-12T23:19:19.823Z,67.72
2023-08-12T23:21:48.237Z,68.14
2023-08-12T23:24:16.498Z,68.26
2023-08-12T23:26:47.433Z,68.03
2023-08-12T23:29:17.247Z,68.62
2023-08-12T23:31:45.577Z,68.27
2023-08-12T23:34:13.938Z,68.15
2023-08-12T23:36:42.201Z,68.46
2023-08-12T23:39:11.695Z,69.13
2023-08-12T23:41:40.151Z,68.86
2023-08-12T23:44:08.826Z,69.60
2023-08-12T23:46:38.682Z,68.66
2023-08-12T23:49:07.565Z,69.38
2023-08-12T23:51:35.945Z,69.45
2023-08-12T23:54:04.259Z,69.48
2023-08-12T23:56:32.479Z,69.36
2023-08-12T23:59:00.681Z,70.00
